»·PEaware :: N1399 KOTH-KEUG

N1399 :: KOTH-KEUG

FLIGHT INFORMATION

Flight Status: Arrived
Operator: Privately registered:
United States
More flights under this callsign
Pilot: David C. (16084)
Aircraft: PIPER PA-31/31P NAVAJO CHIEFTAIN
(PA31)
More flights by this aircraft type
Origin: KOTH North Bend Mun
United States
Destination: KEUG Mahlon Sweet
United States
More flights between these airports :: More routes between these airports
Route: +OTH6 SCOTY EUG
File this flight plan on PilotEdge
Remarks:
Altitude:
(Current/Filed)
7,000ft
Speed:
(Current/Filed)
260kts
Departed: 29-Oct-17 11:31 AM
Arrived: 29-Oct-17 12:10 PM
Distance/Time
Traveled:
62nm/0:38
Distance/Time
To Go:
Arrived

Flight Plot

Page will automatically refresh every two minutes.

Flight plan parsing failed; only flown route is shown


Map Options




Map Legend


Flown Route
Filed Route
Departure Airport
Arrival Airport
Navaid (VOR, NDB)
Fix

Horizontal Profiles

Position Reports

Time Latitude Longitude Heading Altitude Ground
Speed
29-Oct-17 11:17 43.416869 -124.249559 211 21ft 0kts
29-Oct-17 11:18 43.416869 -124.249559 211 21ft 0kts
29-Oct-17 11:19 43.416869 -124.249559 211 21ft 0kts
29-Oct-17 11:20 43.416869 -124.249559 211 21ft 0kts
29-Oct-17 11:21 43.416869 -124.249559 211 21ft 0kts
29-Oct-17 11:22 43.416869 -124.249559 211 21ft 0kts
29-Oct-17 11:23 43.416869 -124.249559 211 21ft 0kts
29-Oct-17 11:24 43.416869 -124.249559 211 21ft 0kts
29-Oct-17 11:25 43.416869 -124.249559 211 21ft 0kts
29-Oct-17 11:26 43.416869 -124.249559 211 21ft 0kts
29-Oct-17 11:27 43.416869 -124.249559 211 21ft 0kts
29-Oct-17 11:28 43.416869 -124.249559 211 21ft 0kts
29-Oct-17 11:29 43.416869 -124.249559 211 21ft 0kts
29-Oct-17 11:30 43.416869 -124.249559 211 21ft 0kts
29-Oct-17 11:31 43.417298 -124.249429 346 21ft 12kts
29-Oct-17 11:32 43.420562 -124.243298 60 21ft 23kts
29-Oct-17 11:33 43.422020 -124.240579 329 21ft 0kts
29-Oct-17 11:34 43.422020 -124.240579 329 21ft 0kts
29-Oct-17 11:35 43.422020 -124.240579 329 21ft 0kts
29-Oct-17 11:36 43.420863 -124.245549 240 21ft 85kts
29-Oct-17 11:37 43.419319 -124.277108 279 1284ft 117kts
29-Oct-17 11:38 43.427799 -124.317285 293 3001ft 121kts
29-Oct-17 11:39 43.430312 -124.357577 241 4697ft 120kts
29-Oct-17 11:40 43.416768 -124.395931 240 6388ft 120kts
29-Oct-17 11:41 43.408019 -124.444575 263 7009ft 177kts
29-Oct-17 11:42 43.434967 -124.485875 22 6988ft 210kts
29-Oct-17 11:43 43.467166 -124.428925 56 6990ft 207kts
29-Oct-17 11:44 43.498306 -124.370459 54 6990ft 206kts
29-Oct-17 11:45 43.530070 -124.312730 54 6990ft 207kts
29-Oct-17 11:46 43.561031 -124.256603 54 6990ft 207kts
29-Oct-17 11:47 43.592747 -124.199047 54 6990ft 207kts
29-Oct-17 11:48 43.624752 -124.140858 54 6991ft 207kts
29-Oct-17 11:49 43.656100 -124.083743 54 6991ft 207kts
29-Oct-17 11:50 43.687893 -124.025699 54 6991ft 207kts
29-Oct-17 11:51 43.719702 -123.967531 54 6991ft 207kts
29-Oct-17 11:52 43.750888 -123.910103 59 6988ft 206kts
29-Oct-17 11:53 43.784393 -123.859767 34 6992ft 208kts
29-Oct-17 11:54 43.827370 -123.820547 33 7016ft 208kts
29-Oct-17 11:55 43.870583 -123.780939 33 7016ft 208kts
29-Oct-17 11:56 43.912623 -123.740066 33 7014ft 207kts
29-Oct-17 11:57 43.953840 -123.698536 33 7011ft 206kts
29-Oct-17 11:58 43.995011 -123.656591 33 7007ft 205kts
29-Oct-17 11:59 44.036342 -123.614576 33 7003ft 206kts
29-Oct-17 12:00 44.078331 -123.572393 33 7001ft 208kts
29-Oct-17 12:01 44.117380 -123.533211 33 7000ft 208kts
29-Oct-17 12:02 44.158441 -123.491974 33 7000ft 208kts
29-Oct-17 12:03 44.199206 -123.450671 33 7003ft 207kts
29-Oct-17 12:04 44.239374 -123.409133 33 6905ft 199kts
29-Oct-17 12:05 44.275394 -123.371303 33 5434ft 177kts
29-Oct-17 12:06 44.304660 -123.334105 78 4062ft 171kts
29-Oct-17 12:07 44.302175 -123.279354 94 3991ft 154kts
29-Oct-17 12:08 44.279844 -123.243939 144 3387ft 147kts
29-Oct-17 12:09 44.254032 -123.221863 177 2746ft 118kts
29-Oct-17 12:10 44.227249 -123.220538 181 2209ft 115kts
29-Oct-17 12:11 44.202380 -123.220107 181 1715ft 97kts
29-Oct-17 12:12 44.179183 -123.219779 181 1262ft 96kts
29-Oct-17 12:13 44.156379 -123.219448 181 823ft 94kts
29-Oct-17 12:14 44.135333 -123.219139 181 425ft 86kts
29-Oct-17 12:15 44.120949 -123.218613 147 378ft 17kts
29-Oct-17 12:16 44.120202 -123.217692 137 378ft 0kts
29-Oct-17 12:17 44.120947 -123.216305 90 378ft 21kts
29-Oct-17 12:18 44.122302 -123.212241 32 378ft 0kts
29-Oct-17 12:19 44.122302 -123.212241 32 378ft 0kts

Navigation Log

Ident Type
Flight plan parsing failed, navigation log unavailable